createdAt,value
2022-11-24T00:01:22.070Z,6.67
2022-11-24T00:04:20.929Z,6.69
2022-11-24T00:06:47.679Z,6.67
2022-11-24T00:09:14.334Z,6.70
2022-11-24T00:11:43.251Z,6.71
2022-11-24T00:14:10.151Z,6.71
2022-11-24T00:16:38.035Z,6.74
2022-11-24T00:19:09.779Z,6.77
2022-11-24T00:21:37.841Z,6.81
2022-11-24T00:24:04.710Z,6.86
2022-11-24T00:26:33.677Z,6.85
2022-11-24T00:29:04.427Z,6.85
2022-11-24T00:31:41.299Z,6.82
2022-11-24T00:34:11.455Z,6.82
2022-11-24T00:36:38.540Z,6.79
2022-11-24T00:39:12.143Z,6.76
2022-11-24T00:41:39.448Z,6.74
2022-11-24T00:44:09.030Z,6.73
2022-11-24T00:46:39.288Z,6.73
2022-11-24T00:49:06.783Z,6.74
2022-11-24T00:51:33.600Z,6.76
2022-11-24T00:54:02.055Z,6.75
2022-11-24T00:56:32.725Z,6.73
2022-11-24T00:58:59.263Z,6.69
2022-11-24T01:01:28.759Z,6.66
2022-11-24T01:03:56.088Z,6.64
2022-11-24T01:06:27.079Z,6.59
2022-11-24T01:08:54.653Z,6.58
2022-11-24T01:11:24.488Z,6.54
2022-11-24T01:13:57.912Z,6.54
2022-11-24T01:16:33.830Z,6.50
2022-11-24T01:19:01.061Z,6.48
2022-11-24T01:21:27.668Z,6.47
2022-11-24T01:23:54.342Z,6.43
2022-11-24T01:26:27.152Z,6.40
2022-11-24T01:29:00.608Z,6.38
2022-11-24T01:31:29.527Z,6.40
2022-11-24T01:33:58.597Z,6.38
2022-11-24T01:36:25.094Z,6.36
2022-11-24T01:38:52.012Z,6.33
2022-11-24T01:41:23.890Z,6.32
2022-11-24T01:43:55.231Z,6.28
2022-11-24T01:46:27.963Z,6.28
2022-11-24T01:49:14.150Z,6.26
2022-11-24T01:51:48.490Z,6.27
2022-11-24T01:54:26.250Z,6.28
2022-11-24T01:56:57.463Z,6.33
2022-11-24T01:59:25.709Z,6.35
2022-11-24T02:01:53.619Z,6.37
2022-11-24T02:04:24.092Z,6.45
2022-11-24T02:06:52.694Z,6.47
2022-11-24T02:09:26.531Z,6.50
2022-11-24T02:11:56.257Z,6.53
2022-11-24T02:14:28.356Z,6.56
2022-11-24T02:16:55.211Z,6.63
2022-11-24T02:19:42.915Z,6.66
2022-11-24T02:22:18.757Z,6.68
2022-11-24T02:25:32.947Z,6.72
2022-11-24T02:28:03.135Z,6.78
2022-11-24T02:30:30.664Z,6.80
2022-11-24T02:32:58.007Z,6.86
2022-11-24T02:35:27.849Z,6.89
2022-11-24T02:37:57.406Z,6.89
2022-11-24T02:40:26.851Z,6.93
2022-11-24T02:43:11.371Z,6.95
2022-11-24T02:45:37.974Z,6.96
2022-11-24T02:48:05.641Z,6.96
2022-11-24T02:50:32.767Z,6.95
2022-11-24T02:52:59.595Z,6.96
2022-11-24T02:55:28.850Z,6.95
2022-11-24T02:57:59.975Z,6.93
2022-11-24T03:00:26.578Z,6.93
2022-11-24T03:02:53.822Z,6.93
2022-11-24T03:05:20.330Z,6.91
2022-11-24T03:07:47.218Z,6.88
2022-11-24T03:10:14.077Z,6.91
2022-11-24T03:12:40.620Z,6.93
2022-11-24T03:15:10.442Z,6.97
2022-11-24T03:17:39.919Z,6.98
2022-11-24T03:20:07.473Z,6.98
2022-11-24T03:22:34.109Z,6.97
2022-11-24T03:25:01.151Z,6.99
2022-11-24T03:27:27.866Z,7.02
2022-11-24T03:29:57.985Z,7.06
2022-11-24T03:32:24.890Z,7.10
2022-11-24T03:34:51.658Z,7.11
2022-11-24T03:37:19.150Z,7.12
2022-11-24T03:39:45.689Z,7.12
2022-11-24T03:42:12.240Z,7.11
2022-11-24T03:44:41.469Z,7.08
2022-11-24T03:47:08.447Z,7.10
2022-11-24T03:49:35.516Z,7.10
2022-11-24T03:52:07.626Z,7.10
2022-11-24T03:54:34.937Z,7.12
2022-11-24T03:57:04.385Z,7.12
2022-11-24T03:59:35.061Z,7.12
2022-11-24T04:02:01.996Z,7.14
2022-11-24T04:04:28.589Z,7.12
2022-11-24T04:06:56.043Z,7.12
2022-11-24T04:09:26.190Z,7.11
2022-11-24T04:12:11.670Z,7.08
2022-11-24T04:14:38.302Z,7.06
2022-11-24T04:17:06.036Z,7.06
2022-11-24T04:19:32.547Z,7.09
2022-11-24T04:21:59.369Z,7.10
2022-11-24T04:24:26.205Z,7.07
2022-11-24T04:26:52.823Z,7.05
2022-11-24T04:29:19.742Z,7.05
2022-11-24T04:31:48.794Z,7.07
2022-11-24T04:34:15.795Z,7.05
2022-11-24T04:36:42.333Z,7.05
2022-11-24T04:39:23.767Z,7.03
2022-11-24T04:41:53.760Z,7.01
2022-11-24T04:44:22.594Z,7.00
2022-11-24T04:46:49.499Z,6.98
2022-11-24T04:49:16.148Z,7.02
2022-11-24T04:51:47.166Z,7.03
2022-11-24T04:54:14.655Z,7.03
2022-11-24T04:56:42.496Z,7.03
2022-11-24T04:59:15.393Z,7.09
2022-11-24T05:01:43.454Z,7.11
2022-11-24T05:04:14.376Z,7.12
2022-11-24T05:06:41.387Z,7.13
2022-11-24T05:09:08.464Z,7.13
2022-11-24T05:11:34.980Z,7.12
2022-11-24T05:14:02.093Z,7.11
2022-11-24T05:16:31.287Z,7.13
2022-11-24T05:18:58.725Z,7.13
2022-11-24T05:21:27.727Z,7.14
2022-11-24T05:23:54.465Z,7.12
2022-11-24T05:26:23.738Z,7.12
2022-11-24T05:28:50.433Z,7.12
2022-11-24T05:31:17.485Z,7.12
2022-11-24T05:33:44.651Z,7.11
2022-11-24T05:36:34.555Z,7.11
2022-11-24T05:39:01.291Z,7.10
2022-11-24T05:41:28.452Z,7.08
2022-11-24T05:43:55.272Z,7.07
2022-11-24T05:46:22.616Z,7.03
2022-11-24T05:48:50.079Z,7.01
2022-11-24T05:51:17.465Z,7.01
2022-11-24T05:53:43.993Z,7.00
2022-11-24T05:56:13.333Z,6.98
2022-11-24T05:58:41.874Z,6.95
2022-11-24T06:01:11.625Z,6.94
2022-11-24T06:03:38.393Z,6.92
2022-11-24T06:06:05.118Z,6.91
2022-11-24T06:08:31.760Z,6.90
2022-11-24T06:11:17.544Z,6.88
2022-11-24T06:13:46.009Z,6.88
2022-11-24T06:16:13.191Z,6.87
2022-11-24T06:18:40.162Z,6.86
2022-11-24T06:21:11.617Z,6.85
2022-11-24T06:23:39.347Z,6.84
2022-11-24T06:26:09.392Z,6.84
2022-11-24T06:28:36.222Z,6.84
2022-11-24T06:31:03.874Z,6.84
2022-11-24T06:33:32.627Z,6.81
2022-11-24T06:36:04.845Z,6.81
2022-11-24T06:38:35.239Z,6.80
2022-11-24T06:41:06.366Z,6.81
2022-11-24T06:43:35.991Z,6.79
2022-11-24T06:46:04.924Z,6.80
2022-11-24T06:48:32.355Z,6.80
2022-11-24T06:51:00.322Z,6.79
2022-11-24T06:53:32.147Z,6.80
2022-11-24T06:56:00.703Z,6.79
2022-11-24T06:58:27.240Z,6.77
2022-11-24T07:00:54.360Z,6.76
2022-11-24T07:03:21.434Z,6.77
2022-11-24T07:05:48.476Z,6.75
2022-11-24T07:08:17.919Z,6.72
2022-11-24T07:10:45.189Z,6.71
2022-11-24T07:13:13.952Z,6.68
2022-11-24T07:15:40.591Z,6.64
2022-11-24T07:18:07.133Z,6.63
2022-11-24T07:20:34.063Z,6.61
2022-11-24T07:23:01.023Z,6.61
2022-11-24T07:25:28.092Z,6.61
2022-11-24T07:28:01.314Z,6.60
2022-11-24T07:30:28.537Z,6.61
2022-11-24T07:33:02.260Z,6.61
2022-11-24T07:35:29.892Z,6.63
2022-11-24T07:38:03.068Z,6.64
2022-11-24T07:40:29.621Z,6.65
2022-11-24T07:42:59.001Z,6.64
2022-11-24T07:45:25.587Z,6.64
2022-11-24T07:47:52.342Z,6.64
2022-11-24T07:50:20.838Z,6.64
2022-11-24T07:52:47.697Z,6.66
2022-11-24T07:55:14.649Z,6.66
2022-11-24T07:57:42.505Z,6.64
2022-11-24T08:00:13.101Z,6.66
2022-11-24T08:02:42.284Z,6.66
2022-11-24T08:05:09.531Z,6.67
2022-11-24T08:07:36.827Z,6.68
2022-11-24T08:10:03.833Z,6.68
2022-11-24T08:12:31.324Z,6.69
2022-11-24T08:14:57.839Z,6.71
2022-11-24T08:17:24.766Z,6.72
2022-11-24T08:19:51.487Z,6.75
2022-11-24T08:22:18.240Z,6.76
2022-11-24T08:24:48.281Z,6.80
2022-11-24T08:27:16.345Z,6.82
2022-11-24T08:29:43.304Z,6.84
2022-11-24T08:32:11.316Z,6.90
2022-11-24T08:34:38.844Z,6.95
2022-11-24T08:37:06.598Z,7.01
2022-11-24T08:39:34.547Z,7.04
2022-11-24T08:42:01.126Z,7.04
2022-11-24T08:44:29.077Z,7.06
2022-11-24T08:46:57.266Z,7.06
2022-11-24T08:49:23.695Z,7.11
2022-11-24T08:51:51.451Z,7.15
2022-11-24T08:54:19.180Z,7.24
2022-11-24T08:56:49.173Z,7.28
2022-11-24T08:59:16.221Z,7.37
2022-11-24T09:01:43.318Z,7.42
2022-11-24T09:04:10.008Z,7.45
2022-11-24T09:06:41.915Z,7.46
2022-11-24T09:09:09.920Z,7.44
2022-11-24T09:11:36.854Z,7.40
2022-11-24T09:14:03.646Z,7.36
2022-11-24T09:16:30.349Z,7.53
2022-11-24T09:18:59.785Z,8.21
2022-11-24T09:21:27.119Z,9.46
2022-11-24T09:23:55.072Z,10.13
2022-11-24T09:26:30.375Z,9.63
2022-11-24T09:28:58.898Z,9.26
2022-11-24T09:31:28.718Z,9.96
2022-11-24T09:33:56.126Z,10.97
2022-11-24T09:36:25.468Z,11.71
2022-11-24T09:38:52.562Z,12.26
2022-11-24T09:41:33.508Z,12.63
2022-11-24T09:44:25.429Z,13.02
2022-11-24T09:47:20.773Z,13.37
2022-11-24T09:50:02.243Z,13.61
2022-11-24T09:53:01.094Z,13.95
2022-11-24T09:55:33.730Z,14.26
2022-11-24T09:58:12.066Z,14.38
2022-11-24T10:00:39.852Z,14.52
2022-11-24T10:03:08.793Z,13.94
2022-11-24T10:05:36.372Z,13.81
2022-11-24T10:08:41.595Z,13.67
2022-11-24T10:11:17.109Z,13.57
2022-11-24T10:14:04.999Z,13.50
2022-11-24T10:17:08.357Z,13.07
2022-11-24T10:19:41.239Z,12.83
2022-11-24T10:22:46.964Z,12.73
2022-11-24T10:25:19.237Z,12.66
2022-11-24T10:27:50.456Z,12.91
2022-11-24T10:30:26.276Z,12.90
2022-11-24T10:33:00.686Z,12.44
2022-11-24T10:35:38.757Z,11.80
2022-11-24T10:38:19.901Z,11.40
2022-11-24T10:40:57.858Z,11.78
2022-11-24T10:43:28.507Z,12.63
2022-11-24T10:46:19.326Z,13.13
2022-11-24T10:49:05.244Z,13.68
2022-11-24T10:51:39.158Z,14.11
2022-11-24T10:54:21.727Z,14.26
2022-11-24T10:56:53.566Z,14.17
2022-11-24T10:59:21.724Z,14.27
2022-11-24T11:01:48.602Z,14.17
2022-11-24T11:04:21.633Z,14.09
2022-11-24T11:06:48.329Z,14.22
2022-11-24T11:09:14.759Z,14.47
2022-11-24T11:11:42.964Z,14.25
2022-11-24T11:14:12.288Z,13.60
2022-11-24T11:16:45.937Z,12.94
2022-11-24T11:19:48.865Z,12.41
2022-11-24T11:22:24.555Z,12.20
2022-11-24T11:25:11.185Z,12.48
2022-11-24T11:27:39.626Z,13.06
2022-11-24T11:36:14.717Z,13.39
2022-11-24T11:38:42.841Z,13.19
2022-11-24T11:41:21.091Z,13.03
2022-11-24T11:43:55.053Z,13.04
2022-11-24T11:46:22.083Z,12.96
2022-11-24T11:48:49.667Z,12.87
2022-11-24T11:51:58.079Z,12.74
2022-11-24T11:54:57.807Z,12.45
2022-11-24T11:57:51.137Z,12.25
2022-11-24T12:00:23.300Z,12.07
2022-11-24T12:03:32.504Z,11.97
2022-11-24T12:06:21.940Z,11.84
2022-11-24T12:09:19.967Z,11.76
2022-11-24T12:12:29.848Z,11.68
2022-11-24T12:15:23.692Z,11.72
2022-11-24T12:18:40.210Z,11.83
2022-11-24T12:21:07.077Z,11.95
2022-11-24T12:23:59.247Z,11.94
2022-11-24T12:26:42.985Z,11.89
2022-11-24T13:14:19.449Z,11.66
2022-11-24T13:17:27.985Z,11.77
2022-11-24T13:19:47.237Z,11.76
2022-11-24T13:22:25.109Z,11.80
2022-11-24T13:25:10.918Z,11.90
2022-11-24T13:27:43.071Z,11.87
2022-11-24T13:30:51.595Z,11.79
2022-11-24T13:33:28.712Z,11.79
2022-11-24T13:36:07.903Z,11.77
2022-11-24T13:38:46.782Z,11.70
2022-11-24T13:41:32.077Z,11.64
2022-11-24T13:44:17.634Z,11.46
2022-11-24T13:47:04.773Z,11.38
2022-11-24T13:49:39.598Z,11.41
2022-11-24T13:52:38.467Z,11.40
2022-11-24T13:55:13.844Z,11.33
2022-11-24T13:57:53.616Z,11.28
2022-11-24T14:00:26.395Z,11.23
2022-11-24T14:02:55.861Z,11.21
2022-11-24T14:05:30.246Z,11.16
2022-11-24T14:07:57.381Z,11.03
2022-11-24T14:10:32.518Z,10.82
2022-11-24T14:13:18.540Z,10.69
2022-11-24T14:15:45.482Z,10.61
2022-11-24T14:18:24.229Z,10.52
2022-11-24T14:20:52.242Z,10.43
2022-11-24T14:23:18.726Z,10.37
2022-11-24T14:25:49.986Z,10.31
2022-11-24T14:28:23.056Z,10.22
2022-11-24T14:30:49.716Z,10.20
2022-11-24T14:33:20.092Z,10.10
2022-11-24T14:35:50.466Z,10.00
2022-11-24T14:38:20.011Z,9.87
2022-11-24T14:40:50.539Z,9.77
2022-11-24T14:43:28.075Z,9.70
2022-11-24T14:46:04.038Z,9.68
2022-11-24T14:48:36.008Z,9.60
2022-11-24T14:51:38.472Z,9.49
2022-11-24T14:54:14.889Z,9.37
2022-11-24T14:56:42.217Z,9.25
2022-11-24T14:59:23.269Z,9.16
2022-11-24T15:01:52.610Z,9.05
2022-11-24T15:07:17.522Z,8.91
2022-11-24T15:09:47.252Z,8.85
2022-11-24T15:12:34.934Z,8.83
2022-11-24T15:15:02.824Z,8.79
2022-11-24T15:17:31.557Z,8.76
2022-11-24T15:20:03.068Z,8.72
2022-11-24T15:22:29.862Z,8.69
2022-11-24T15:24:57.027Z,8.64
2022-11-24T15:27:24.365Z,8.63
2022-11-24T15:29:53.310Z,8.62
2022-11-24T15:32:20.035Z,8.64
2022-11-24T15:34:47.000Z,8.60
2022-11-24T15:37:13.967Z,8.57
2022-11-24T15:39:41.289Z,8.57
2022-11-24T15:42:11.753Z,8.51
2022-11-24T15:44:38.412Z,8.50
2022-11-24T15:47:05.596Z,8.47
2022-11-24T15:49:36.487Z,8.43
2022-11-24T15:52:03.145Z,8.35
2022-11-24T15:54:29.967Z,8.36
2022-11-24T15:56:56.936Z,8.33
2022-11-24T15:59:27.231Z,8.31
2022-11-24T16:01:54.557Z,8.31
2022-11-24T16:04:21.263Z,8.30
2022-11-24T16:06:50.331Z,8.30
2022-11-24T16:09:17.660Z,8.28
2022-11-24T16:11:47.264Z,8.26
2022-11-24T16:14:14.326Z,8.24
2022-11-24T16:16:41.733Z,8.24
2022-11-24T16:19:09.913Z,8.21
2022-11-24T16:21:36.406Z,8.21
2022-11-24T16:24:03.888Z,8.22
2022-11-24T16:26:30.816Z,8.20
2022-11-24T16:29:00.501Z,8.20
2022-11-24T16:31:28.087Z,8.18
2022-11-24T16:33:54.674Z,8.18
2022-11-24T16:36:23.805Z,8.17
2022-11-24T16:38:51.224Z,8.12
2022-11-24T16:41:17.770Z,8.07
2022-11-24T16:43:46.376Z,8.05
2022-11-24T16:46:22.063Z,8.02
2022-11-24T16:48:51.572Z,7.99
2022-11-24T16:51:21.333Z,7.94
2022-11-24T16:53:48.761Z,7.93
2022-11-24T16:56:16.721Z,7.92
2022-11-24T16:58:43.667Z,7.90
2022-11-24T17:01:12.786Z,7.85
2022-11-24T17:03:40.163Z,7.79
2022-11-24T17:06:09.103Z,7.73
2022-11-24T17:08:38.583Z,7.72
2022-11-24T17:11:11.443Z,7.70
2022-11-24T17:13:38.956Z,7.69
2022-11-24T17:16:07.724Z,7.65
2022-11-24T17:18:42.242Z,7.67
2022-11-24T17:21:15.503Z,7.66
2022-11-24T17:23:42.860Z,7.64
2022-11-24T17:26:14.562Z,7.65
2022-11-24T17:28:42.624Z,7.68
2022-11-24T17:31:16.938Z,7.72
2022-11-24T17:33:43.594Z,7.73
2022-11-24T17:36:10.293Z,7.75
2022-11-24T17:38:37.778Z,7.78
2022-11-24T17:41:05.454Z,7.80
2022-11-24T17:43:33.100Z,7.80
2022-11-24T17:46:02.003Z,7.78
2022-11-24T17:48:32.438Z,7.78
2022-11-24T17:51:01.152Z,7.78
2022-11-24T17:53:28.471Z,7.75
2022-11-24T17:55:58.778Z,7.72
2022-11-24T17:58:30.210Z,7.69
2022-11-24T18:00:57.901Z,7.69
2022-11-24T18:03:28.745Z,7.67
2022-11-24T18:05:56.113Z,7.65
2022-11-24T18:08:24.274Z,7.64
2022-11-24T18:10:51.354Z,7.62
2022-11-24T18:13:40.618Z,7.62
2022-11-24T18:16:07.767Z,7.60
2022-11-24T18:18:39.313Z,7.64
2022-11-24T18:21:12.386Z,7.64
2022-11-24T18:23:39.628Z,7.67
2022-11-24T18:26:08.932Z,7.67
2022-11-24T18:28:35.536Z,7.65
2022-11-24T18:31:10.225Z,7.71
2022-11-24T18:33:41.403Z,7.74
2022-11-24T18:36:10.727Z,7.77
2022-11-24T18:38:37.519Z,7.79
2022-11-24T18:41:08.985Z,7.79
2022-11-24T18:43:38.456Z,7.77
2022-11-24T18:46:11.904Z,7.80
2022-11-24T18:48:39.027Z,7.78
2022-11-24T18:51:06.225Z,7.74
2022-11-24T18:53:33.060Z,7.71
2022-11-24T18:56:02.639Z,7.68
2022-11-24T18:58:31.079Z,7.62
2022-11-24T19:01:21.490Z,7.59
2022-11-24T19:03:52.609Z,7.59
2022-11-24T19:06:28.847Z,7.56
2022-11-24T19:08:55.684Z,7.55
2022-11-24T19:11:25.742Z,7.51
2022-11-24T19:13:57.856Z,7.52
2022-11-24T19:16:27.726Z,7.52
2022-11-24T19:18:57.559Z,7.51
2022-11-24T19:21:26.307Z,7.49
2022-11-24T19:23:53.705Z,7.46
2022-11-24T19:26:20.533Z,7.47
2022-11-24T19:28:49.498Z,7.45
2022-11-24T19:31:18.395Z,7.39
2022-11-24T19:33:46.063Z,7.37
2022-11-24T19:36:20.963Z,7.36
2022-11-24T19:38:52.844Z,7.32
2022-11-24T19:41:21.103Z,7.30
2022-11-24T19:43:48.617Z,7.31
2022-11-24T19:46:18.556Z,7.31
2022-11-24T19:48:48.833Z,7.29
2022-11-24T19:51:20.086Z,7.28
2022-11-24T19:53:49.415Z,7.28
2022-11-24T19:56:22.244Z,7.25
2022-11-24T19:58:49.531Z,7.23
2022-11-24T20:01:49.855Z,7.18
2022-11-24T20:04:17.346Z,7.17
2022-11-24T20:06:48.104Z,7.14
2022-11-24T20:09:17.609Z,7.14
2022-11-24T20:11:48.886Z,7.13
2022-11-24T20:14:20.053Z,7.12
2022-11-24T20:16:48.527Z,7.08
2022-11-24T20:19:17.066Z,7.05
2022-11-24T20:21:49.707Z,7.05
2022-11-24T20:24:22.851Z,7.04
2022-11-24T20:26:54.911Z,7.05
2022-11-24T20:29:21.912Z,7.04
2022-11-24T20:31:50.920Z,7.06
2022-11-24T20:34:18.817Z,7.03
2022-11-24T20:36:47.656Z,7.03
2022-11-24T20:39:19.207Z,7.01
2022-11-24T20:41:51.544Z,7.00
2022-11-24T20:44:23.333Z,7.04
2022-11-24T20:46:50.536Z,7.06
2022-11-24T20:49:20.640Z,7.07
2022-11-24T20:51:47.864Z,7.12
2022-11-24T20:54:19.699Z,7.19
2022-11-24T20:56:47.482Z,7.23
2022-11-24T20:59:16.850Z,7.28
2022-11-24T21:01:46.904Z,7.33
2022-11-24T21:04:18.756Z,7.34
2022-11-24T21:06:48.675Z,7.34
2022-11-24T21:09:15.684Z,7.36
2022-11-24T21:11:43.080Z,7.32
2022-11-24T21:14:10.669Z,7.30
2022-11-24T21:16:38.972Z,7.29
2022-11-24T21:19:11.750Z,7.29
2022-11-24T21:21:39.876Z,7.30
2022-11-24T21:24:15.147Z,7.32
2022-11-24T21:26:43.140Z,7.34
2022-11-24T21:29:14.119Z,7.35
2022-11-24T21:31:41.492Z,7.37
2022-11-24T21:34:08.931Z,7.34
2022-11-24T21:36:35.923Z,7.36
2022-11-24T21:39:04.390Z,7.37
2022-11-24T21:41:34.635Z,7.37
2022-11-24T21:44:01.660Z,7.38
2022-11-24T21:46:30.352Z,7.36
2022-11-24T21:48:56.959Z,7.32
2022-11-24T21:51:23.474Z,7.32
2022-11-24T21:53:50.029Z,7.30
2022-11-24T21:56:19.203Z,7.28
2022-11-24T21:58:52.247Z,7.29
2022-11-24T22:01:25.255Z,7.28
2022-11-24T22:03:52.779Z,7.29
2022-11-24T22:06:22.422Z,7.28
2022-11-24T22:08:54.528Z,7.24
2022-11-24T22:11:23.722Z,7.24
2022-11-24T22:13:51.490Z,7.23
2022-11-24T22:16:20.957Z,7.24
2022-11-24T22:18:50.613Z,7.26
2022-11-24T22:21:23.910Z,7.24
2022-11-24T22:23:52.897Z,7.28
2022-11-24T22:26:22.129Z,7.30
2022-11-24T22:28:49.037Z,7.29
2022-11-24T22:31:23.964Z,7.30
2022-11-24T22:33:56.786Z,7.30
2022-11-24T22:36:28.860Z,7.27
2022-11-24T22:39:00.443Z,7.29
2022-11-24T22:41:27.676Z,7.30
2022-11-24T22:43:54.607Z,7.31
2022-11-24T22:46:24.191Z,7.33
2022-11-24T22:48:55.924Z,7.36
2022-11-24T22:51:29.744Z,7.37
2022-11-24T22:53:58.402Z,7.39
2022-11-24T22:56:25.391Z,7.39
2022-11-24T22:58:52.036Z,7.39
2022-11-24T23:01:23.144Z,7.35
2022-11-24T23:03:51.263Z,7.34
2022-11-24T23:06:23.414Z,7.36
2022-11-24T23:08:51.682Z,7.37
2022-11-24T23:11:20.340Z,7.38
2022-11-24T23:13:51.942Z,7.38
2022-11-24T23:16:19.164Z,7.41
2022-11-24T23:18:52.364Z,7.42
2022-11-24T23:21:23.442Z,7.41
2022-11-24T23:23:50.932Z,7.41
2022-11-24T23:26:23.441Z,7.41
2022-11-24T23:28:50.178Z,7.41
2022-11-24T23:31:19.308Z,7.41
2022-11-24T23:33:48.380Z,7.41
2022-11-24T23:36:17.148Z,7.41
2022-11-24T23:38:47.820Z,7.39
2022-11-24T23:41:18.162Z,7.39
2022-11-24T23:43:46.544Z,7.43
2022-11-24T23:46:17.377Z,7.43
2022-11-24T23:48:45.821Z,7.43
2022-11-24T23:51:19.516Z,7.43
2022-11-24T23:53:46.477Z,7.41
2022-11-24T23:56:15.873Z,7.37
2022-11-24T23:58:43.233Z,7.35
